Grassy Point, New York
Current Conditions -  °F | °C
As of 4:45 PM on Friday 24 Oct 2014 (Local Time) from KSWF Reporting Station
Broken Clouds Broken Clouds  
Wind Chill: 59°   Ceiling: 7000
Heat Index: 59°   Visibility: 20mi
Dew Point: 48°   Wind: 6mph
Humidity: 67%   Direction: NA
Pressure: 29.79"   Gusts: NA
Location:  41.2394°N, 74.039°W
Report Text: KSWF 242045Z VRB05KT 20SM BKN070 15/09 A2979
Loading
Personal Weather Stations






























Interactive Weather Map
Tropical Storm Tracking
New forecast layout! Learn more

10-Day Weather Forecast

Advertisements
Track Severe Weather on mobile